sensor_id;sensor_type;location;lat;lon;timestamp;P1;durP1;ratioP1;P2;durP2;ratioP2
14203;SDS011;7185;51.854;6.622;2023-01-26T00:01:12;137.10;;;34.90;;
14203;SDS011;7185;51.854;6.622;2023-01-26T00:03:45;134.88;;;35.90;;
14203;SDS011;7185;51.854;6.622;2023-01-26T00:06:18;140.60;;;35.40;;
14203;SDS011;7185;51.854;6.622;2023-01-26T00:08:51;136.82;;;34.92;;
14203;SDS011;7185;51.854;6.622;2023-01-26T00:11:27;138.45;;;34.53;;
14203;SDS011;7185;51.854;6.622;2023-01-26T00:14:02;125.78;;;33.75;;
14203;SDS011;7185;51.854;6.622;2023-01-26T00:16:34;137.10;;;34.53;;
14203;SDS011;7185;51.854;6.622;2023-01-26T00:19:06;137.00;;;32.85;;
14203;SDS011;7185;51.854;6.622;2023-01-26T00:21:37;127.18;;;32.03;;
14203;SDS011;7185;51.854;6.622;2023-01-26T00:24:10;136.85;;;33.13;;
14203;SDS011;7185;51.854;6.622;2023-01-26T00:26:43;130.15;;;32.28;;
14203;SDS011;7185;51.854;6.622;2023-01-26T00:29:28;123.35;;;32.38;;
14203;SDS011;7185;51.854;6.622;2023-01-26T00:32:00;128.13;;;32.67;;
14203;SDS011;7185;51.854;6.622;2023-01-26T00:34:32;140.23;;;34.85;;
14203;SDS011;7185;51.854;6.622;2023-01-26T00:37:03;130.25;;;34.22;;
14203;SDS011;7185;51.854;6.622;2023-01-26T00:39:35;121.53;;;32.13;;
14203;SDS011;7185;51.854;6.622;2023-01-26T00:42:09;125.53;;;32.85;;
14203;SDS011;7185;51.854;6.622;2023-01-26T00:44:42;122.88;;;33.10;;
14203;SDS011;7185;51.854;6.622;2023-01-26T00:47:15;120.22;;;31.45;;
14203;SDS011;7185;51.854;6.622;2023-01-26T00:49:49;136.48;;;33.70;;
14203;SDS011;7185;51.854;6.622;2023-01-26T00:52:21;125.00;;;33.45;;
14203;SDS011;7185;51.854;6.622;2023-01-26T00:54:52;122.50;;;33.50;;
14203;SDS011;7185;51.854;6.622;2023-01-26T00:57:27;126.65;;;35.05;;
14203;SDS011;7185;51.854;6.622;2023-01-26T00:59:58;139.73;;;34.75;;
14203;SDS011;7185;51.854;6.622;2023-01-26T01:02:30;129.90;;;32.80;;
14203;SDS011;7185;51.854;6.622;2023-01-26T01:05:06;123.07;;;28.87;;
14203;SDS011;7185;51.854;6.622;2023-01-26T01:07:39;116.28;;;32.45;;
14203;SDS011;7185;51.854;6.622;2023-01-26T01:10:10;122.63;;;31.02;;
14203;SDS011;7185;51.854;6.622;2023-01-26T01:12:44;133.30;;;34.15;;
14203;SDS011;7185;51.854;6.622;2023-01-26T01:15:16;139.80;;;35.47;;
14203;SDS011;7185;51.854;6.622;2023-01-26T01:17:47;130.45;;;35.80;;
14203;SDS011;7185;51.854;6.622;2023-01-26T01:20:21;120.70;;;32.60;;
14203;SDS011;7185;51.854;6.622;2023-01-26T01:22:53;130.35;;;33.78;;
14203;SDS011;7185;51.854;6.622;2023-01-26T01:25:25;127.35;;;32.65;;
14203;SDS011;7185;51.854;6.622;2023-01-26T01:27:58;129.95;;;32.25;;
14203;SDS011;7185;51.854;6.622;2023-01-26T01:30:29;124.43;;;33.03;;
14203;SDS011;7185;51.854;6.622;2023-01-26T01:33:01;125.25;;;33.33;;
14203;SDS011;7185;51.854;6.622;2023-01-26T01:35:33;136.40;;;34.45;;
14203;SDS011;7185;51.854;6.622;2023-01-26T01:38:05;135.38;;;36.20;;
14203;SDS011;7185;51.854;6.622;2023-01-26T01:40:41;131.25;;;35.03;;
14203;SDS011;7185;51.854;6.622;2023-01-26T01:43:15;124.70;;;33.33;;
14203;SDS011;7185;51.854;6.622;2023-01-26T01:45:47;119.50;;;30.25;;
14203;SDS011;7185;51.854;6.622;2023-01-26T01:48:21;137.70;;;32.13;;
14203;SDS011;7185;51.854;6.622;2023-01-26T01:50:58;126.70;;;31.90;;
14203;SDS011;7185;51.854;6.622;2023-01-26T01:53:36;130.30;;;33.90;;
14203;SDS011;7185;51.854;6.622;2023-01-26T01:56:11;126.10;;;32.95;;
14203;SDS011;7185;51.854;6.622;2023-01-26T01:58:50;152.70;;;35.78;;
14203;SDS011;7185;51.854;6.622;2023-01-26T02:01:24;140.98;;;34.35;;
14203;SDS011;7185;51.854;6.622;2023-01-26T02:03:56;134.52;;;34.17;;
14203;SDS011;7185;51.854;6.622;2023-01-26T02:06:32;136.25;;;33.45;;
14203;SDS011;7185;51.854;6.622;2023-01-26T02:09:07;122.90;;;33.03;;
14203;SDS011;7185;51.854;6.622;2023-01-26T02:12:01;125.30;;;33.30;;
14203;SDS011;7185;51.854;6.622;2023-01-26T02:14:37;114.47;;;31.17;;
14203;SDS011;7185;51.854;6.622;2023-01-26T02:17:09;127.38;;;32.70;;
14203;SDS011;7185;51.854;6.622;2023-01-26T02:19:43;121.78;;;32.55;;
14203;SDS011;7185;51.854;6.622;2023-01-26T02:22:23;126.38;;;32.05;;
14203;SDS011;7185;51.854;6.622;2023-01-26T02:25:05;124.50;;;33.92;;
14203;SDS011;7185;51.854;6.622;2023-01-26T02:27:43;121.90;;;33.83;;
14203;SDS011;7185;51.854;6.622;2023-01-26T02:30:15;109.80;;;32.65;;
14203;SDS011;7185;51.854;6.622;2023-01-26T02:32:47;122.43;;;31.90;;
14203;SDS011;7185;51.854;6.622;2023-01-26T02:35:19;119.03;;;32.83;;
14203;SDS011;7185;51.854;6.622;2023-01-26T02:37:51;112.22;;;31.25;;
14203;SDS011;7185;51.854;6.622;2023-01-26T02:40:24;115.72;;;31.88;;
14203;SDS011;7185;51.854;6.622;2023-01-26T02:43:12;114.05;;;30.70;;
14203;SDS011;7185;51.854;6.622;2023-01-26T02:45:43;123.05;;;34.03;;
14203;SDS011;7185;51.854;6.622;2023-01-26T02:48:15;111.97;;;30.77;;
14203;SDS011;7185;51.854;6.622;2023-01-26T02:51:08;125.32;;;31.83;;
14203;SDS011;7185;51.854;6.622;2023-01-26T02:53:38;113.45;;;30.67;;
14203;SDS011;7185;51.854;6.622;2023-01-26T02:56:10;122.65;;;31.58;;
14203;SDS011;7185;51.854;6.622;2023-01-26T02:58:43;111.03;;;31.17;;
14203;SDS011;7185;51.854;6.622;2023-01-26T03:01:19;125.15;;;33.63;;
14203;SDS011;7185;51.854;6.622;2023-01-26T03:04:04;116.32;;;29.25;;
14203;SDS011;7185;51.854;6.622;2023-01-26T03:06:36;119.07;;;30.50;;
14203;SDS011;7185;51.854;6.622;2023-01-26T03:09:08;112.78;;;30.25;;
14203;SDS011;7185;51.854;6.622;2023-01-26T03:11:39;119.00;;;29.13;;
14203;SDS011;7185;51.854;6.622;2023-01-26T03:14:13;118.25;;;31.17;;
14203;SDS011;7185;51.854;6.622;2023-01-26T03:16:45;97.38;;;28.52;;
14203;SDS011;7185;51.854;6.622;2023-01-26T03:19:17;108.18;;;28.35;;
14203;SDS011;7185;51.854;6.622;2023-01-26T03:22:07;105.00;;;27.98;;
14203;SDS011;7185;51.854;6.622;2023-01-26T03:24:57;104.13;;;26.67;;
14203;SDS011;7185;51.854;6.622;2023-01-26T03:27:47;108.18;;;28.25;;
14203;SDS011;7185;51.854;6.622;2023-01-26T03:30:21;100.78;;;27.80;;
14203;SDS011;7185;51.854;6.622;2023-01-26T03:32:52;106.05;;;30.23;;
14203;SDS011;7185;51.854;6.622;2023-01-26T03:35:24;105.85;;;29.15;;
14203;SDS011;7185;51.854;6.622;2023-01-26T03:37:55;93.78;;;25.38;;
14203;SDS011;7185;51.854;6.622;2023-01-26T03:40:27;99.07;;;28.67;;
14203;SDS011;7185;51.854;6.622;2023-01-26T03:43:16;105.50;;;28.98;;
14203;SDS011;7185;51.854;6.622;2023-01-26T03:46:07;101.65;;;27.25;;
14203;SDS011;7185;51.854;6.622;2023-01-26T03:48:56;98.00;;;26.95;;
14203;SDS011;7185;51.854;6.622;2023-01-26T03:51:45;107.28;;;29.63;;
14203;SDS011;7185;51.854;6.622;2023-01-26T03:54:34;99.60;;;25.35;;
14203;SDS011;7185;51.854;6.622;2023-01-26T03:57:23;108.00;;;28.23;;
14203;SDS011;7185;51.854;6.622;2023-01-26T03:59:55;108.20;;;26.55;;
14203;SDS011;7185;51.854;6.622;2023-01-26T04:02:27;103.78;;;29.83;;
14203;SDS011;7185;51.854;6.622;2023-01-26T04:05:16;101.20;;;27.88;;
14203;SDS011;7185;51.854;6.622;2023-01-26T04:08:05;94.57;;;26.48;;
14203;SDS011;7185;51.854;6.622;2023-01-26T04:10:56;104.65;;;29.02;;
14203;SDS011;7185;51.854;6.622;2023-01-26T04:13:27;101.45;;;29.08;;
14203;SDS011;7185;51.854;6.622;2023-01-26T04:16:17;98.35;;;26.40;;
14203;SDS011;7185;51.854;6.622;2023-01-26T04:19:07;96.90;;;27.27;;
14203;SDS011;7185;51.854;6.622;2023-01-26T04:21:57;82.45;;;24.13;;
14203;SDS011;7185;51.854;6.622;2023-01-26T04:24:29;95.72;;;27.17;;
14203;SDS011;7185;51.854;6.622;2023-01-26T04:27:01;89.93;;;24.55;;
14203;SDS011;7185;51.854;6.622;2023-01-26T04:29:32;84.10;;;25.80;;
14203;SDS011;7185;51.854;6.622;2023-01-26T04:32:04;89.40;;;27.50;;
14203;SDS011;7185;51.854;6.622;2023-01-26T04:34:37;91.47;;;26.55;;
14203;SDS011;7185;51.854;6.622;2023-01-26T04:37:08;98.25;;;28.27;;
14203;SDS011;7185;51.854;6.622;2023-01-26T04:39:40;90.03;;;24.35;;
14203;SDS011;7185;51.854;6.622;2023-01-26T04:42:12;89.00;;;25.77;;
14203;SDS011;7185;51.854;6.622;2023-01-26T04:44:43;91.22;;;25.20;;
14203;SDS011;7185;51.854;6.622;2023-01-26T04:47:15;92.40;;;25.33;;
14203;SDS011;7185;51.854;6.622;2023-01-26T04:49:48;82.47;;;23.15;;
14203;SDS011;7185;51.854;6.622;2023-01-26T04:52:19;82.75;;;23.00;;
14203;SDS011;7185;51.854;6.622;2023-01-26T04:54:51;79.80;;;24.63;;
14203;SDS011;7185;51.854;6.622;2023-01-26T04:57:22;73.72;;;21.35;;
14203;SDS011;7185;51.854;6.622;2023-01-26T04:59:54;64.60;;;21.08;;
14203;SDS011;7185;51.854;6.622;2023-01-26T05:02:25;72.45;;;21.85;;
14203;SDS011;7185;51.854;6.622;2023-01-26T05:05:02;71.20;;;19.48;;
14203;SDS011;7185;51.854;6.622;2023-01-26T05:07:34;56.40;;;17.30;;
14203;SDS011;7185;51.854;6.622;2023-01-26T05:10:06;59.83;;;16.77;;
14203;SDS011;7185;51.854;6.622;2023-01-26T05:12:39;58.95;;;18.40;;
14203;SDS011;7185;51.854;6.622;2023-01-26T05:15:13;50.05;;;15.77;;
14203;SDS011;7185;51.854;6.622;2023-01-26T05:17:45;53.58;;;16.55;;
14203;SDS011;7185;51.854;6.622;2023-01-26T05:20:21;56.65;;;16.75;;
14203;SDS011;7185;51.854;6.622;2023-01-26T05:22:54;53.88;;;15.95;;
14203;SDS011;7185;51.854;6.622;2023-01-26T05:25:27;55.17;;;16.98;;
14203;SDS011;7185;51.854;6.622;2023-01-26T05:28:00;55.58;;;18.30;;
14203;SDS011;7185;51.854;6.622;2023-01-26T05:30:35;49.63;;;16.50;;
14203;SDS011;7185;51.854;6.622;2023-01-26T05:33:07;53.45;;;16.88;;
14203;SDS011;7185;51.854;6.622;2023-01-26T05:35:42;53.63;;;16.90;;
14203;SDS011;7185;51.854;6.622;2023-01-26T05:38:14;51.38;;;16.77;;
14203;SDS011;7185;51.854;6.622;2023-01-26T05:40:46;51.53;;;16.02;;
14203;SDS011;7185;51.854;6.622;2023-01-26T05:43:21;51.90;;;15.90;;
14203;SDS011;7185;51.854;6.622;2023-01-26T05:45:54;52.88;;;16.75;;
14203;SDS011;7185;51.854;6.622;2023-01-26T05:48:27;55.20;;;17.45;;
14203;SDS011;7185;51.854;6.622;2023-01-26T05:51:01;54.45;;;17.10;;
14203;SDS011;7185;51.854;6.622;2023-01-26T05:53:33;53.60;;;17.58;;
14203;SDS011;7185;51.854;6.622;2023-01-26T05:56:05;46.75;;;15.63;;
14203;SDS011;7185;51.854;6.622;2023-01-26T05:58:37;53.42;;;15.48;;
14203;SDS011;7185;51.854;6.622;2023-01-26T06:01:12;51.58;;;18.17;;
14203;SDS011;7185;51.854;6.622;2023-01-26T06:03:43;50.80;;;17.13;;
14203;SDS011;7185;51.854;6.622;2023-01-26T06:06:17;49.45;;;15.95;;
14203;SDS011;7185;51.854;6.622;2023-01-26T06:08:48;46.78;;;16.23;;
14203;SDS011;7185;51.854;6.622;2023-01-26T06:11:20;52.30;;;15.90;;
14203;SDS011;7185;51.854;6.622;2023-01-26T06:13:52;46.97;;;15.65;;
14203;SDS011;7185;51.854;6.622;2023-01-26T06:16:23;49.50;;;15.80;;
14203;SDS011;7185;51.854;6.622;2023-01-26T06:18:58;50.17;;;15.02;;
14203;SDS011;7185;51.854;6.622;2023-01-26T06:21:33;46.72;;;15.73;;
14203;SDS011;7185;51.854;6.622;2023-01-26T06:24:05;46.33;;;15.35;;
14203;SDS011;7185;51.854;6.622;2023-01-26T06:26:37;50.00;;;15.50;;
14203;SDS011;7185;51.854;6.622;2023-01-26T06:29:09;46.47;;;13.73;;
14203;SDS011;7185;51.854;6.622;2023-01-26T06:31:41;46.00;;;15.32;;
14203;SDS011;7185;51.854;6.622;2023-01-26T06:34:13;42.15;;;14.73;;
14203;SDS011;7185;51.854;6.622;2023-01-26T06:36:48;45.30;;;14.85;;
14203;SDS011;7185;51.854;6.622;2023-01-26T06:39:20;45.35;;;13.95;;
14203;SDS011;7185;51.854;6.622;2023-01-26T06:41:52;44.08;;;15.00;;
14203;SDS011;7185;51.854;6.622;2023-01-26T06:44:26;42.05;;;14.00;;
14203;SDS011;7185;51.854;6.622;2023-01-26T06:46:58;39.17;;;13.10;;
14203;SDS011;7185;51.854;6.622;2023-01-26T06:49:30;40.53;;;12.70;;
14203;SDS011;7185;51.854;6.622;2023-01-26T06:52:04;42.17;;;15.18;;
14203;SDS011;7185;51.854;6.622;2023-01-26T06:54:49;40.55;;;13.82;;
14203;SDS011;7185;51.854;6.622;2023-01-26T06:57:21;40.58;;;13.20;;
14203;SDS011;7185;51.854;6.622;2023-01-26T06:59:53;50.65;;;17.15;;
14203;SDS011;7185;51.854;6.622;2023-01-26T07:02:27;45.72;;;15.18;;
14203;SDS011;7185;51.854;6.622;2023-01-26T07:04:58;41.88;;;13.35;;
14203;SDS011;7185;51.854;6.622;2023-01-26T07:07:31;42.85;;;13.60;;
14203;SDS011;7185;51.854;6.622;2023-01-26T07:10:04;43.50;;;14.05;;
14203;SDS011;7185;51.854;6.622;2023-01-26T07:12:37;44.53;;;14.77;;
14203;SDS011;7185;51.854;6.622;2023-01-26T07:15:10;38.55;;;13.73;;
14203;SDS011;7185;51.854;6.622;2023-01-26T07:17:43;41.78;;;13.55;;
14203;SDS011;7185;51.854;6.622;2023-01-26T07:20:15;39.03;;;13.82;;
14203;SDS011;7185;51.854;6.622;2023-01-26T07:22:50;46.40;;;15.02;;
14203;SDS011;7185;51.854;6.622;2023-01-26T07:25:23;42.47;;;13.75;;
14203;SDS011;7185;51.854;6.622;2023-01-26T07:27:58;43.08;;;15.75;;
14203;SDS011;7185;51.854;6.622;2023-01-26T07:30:29;43.83;;;13.70;;
14203;SDS011;7185;51.854;6.622;2023-01-26T07:33:01;45.38;;;14.68;;
14203;SDS011;7185;51.854;6.622;2023-01-26T07:35:33;40.88;;;13.50;;
14203;SDS011;7185;51.854;6.622;2023-01-26T07:38:09;40.03;;;12.88;;
14203;SDS011;7185;51.854;6.622;2023-01-26T07:40:43;38.97;;;13.23;;
14203;SDS011;7185;51.854;6.622;2023-01-26T07:43:15;42.03;;;14.35;;
14203;SDS011;7185;51.854;6.622;2023-01-26T07:45:48;40.15;;;13.35;;
14203;SDS011;7185;51.854;6.622;2023-01-26T07:48:22;39.20;;;12.95;;
14203;SDS011;7185;51.854;6.622;2023-01-26T07:50:56;42.00;;;13.75;;
14203;SDS011;7185;51.854;6.622;2023-01-26T07:53:31;38.42;;;13.23;;
14203;SDS011;7185;51.854;6.622;2023-01-26T07:56:09;38.15;;;12.40;;
14203;SDS011;7185;51.854;6.622;2023-01-26T07:58:42;36.50;;;13.00;;
14203;SDS011;7185;51.854;6.622;2023-01-26T08:01:14;36.78;;;13.63;;
14203;SDS011;7185;51.854;6.622;2023-01-26T08:03:48;36.80;;;11.35;;
14203;SDS011;7185;51.854;6.622;2023-01-26T08:06:21;39.65;;;12.50;;
14203;SDS011;7185;51.854;6.622;2023-01-26T08:08:56;37.13;;;13.25;;
14203;SDS011;7185;51.854;6.622;2023-01-26T08:11:29;38.10;;;13.02;;
14203;SDS011;7185;51.854;6.622;2023-01-26T08:14:01;34.80;;;12.75;;
14203;SDS011;7185;51.854;6.622;2023-01-26T08:16:33;35.90;;;13.20;;
14203;SDS011;7185;51.854;6.622;2023-01-26T08:19:07;32.05;;;11.93;;
14203;SDS011;7185;51.854;6.622;2023-01-26T08:21:39;35.15;;;13.23;;
14203;SDS011;7185;51.854;6.622;2023-01-26T08:24:12;36.25;;;11.90;;
14203;SDS011;7185;51.854;6.622;2023-01-26T08:26:45;31.90;;;11.02;;
14203;SDS011;7185;51.854;6.622;2023-01-26T08:29:17;35.85;;;12.20;;
14203;SDS011;7185;51.854;6.622;2023-01-26T08:31:50;36.15;;;13.00;;
14203;SDS011;7185;51.854;6.622;2023-01-26T08:34:22;36.85;;;11.95;;
14203;SDS011;7185;51.854;6.622;2023-01-26T08:36:55;39.35;;;14.63;;
14203;SDS011;7185;51.854;6.622;2023-01-26T08:39:28;37.60;;;13.05;;
14203;SDS011;7185;51.854;6.622;2023-01-26T08:42:00;35.55;;;13.07;;
14203;SDS011;7185;51.854;6.622;2023-01-26T08:44:32;36.45;;;12.48;;
14203;SDS011;7185;51.854;6.622;2023-01-26T08:47:04;34.78;;;11.63;;
14203;SDS011;7185;51.854;6.622;2023-01-26T08:49:35;32.05;;;11.95;;
14203;SDS011;7185;51.854;6.622;2023-01-26T08:52:07;37.45;;;11.85;;
14203;SDS011;7185;51.854;6.622;2023-01-26T08:54:41;35.65;;;12.05;;
14203;SDS011;7185;51.854;6.622;2023-01-26T08:57:12;32.92;;;11.77;;
14203;SDS011;7185;51.854;6.622;2023-01-26T08:59:44;36.00;;;12.88;;
14203;SDS011;7185;51.854;6.622;2023-01-26T09:04:48;38.58;;;14.27;;
14203;SDS011;7185;51.854;6.622;2023-01-26T09:07:20;34.05;;;11.88;;
14203;SDS011;7185;51.854;6.622;2023-01-26T09:09:53;35.45;;;12.45;;
14203;SDS011;7185;51.854;6.622;2023-01-26T09:12:24;36.10;;;12.90;;
14203;SDS011;7185;51.854;6.622;2023-01-26T09:14:56;37.80;;;12.77;;
14203;SDS011;7185;51.854;6.622;2023-01-26T09:17:27;37.03;;;13.23;;
14203;SDS011;7185;51.854;6.622;2023-01-26T09:19:59;40.50;;;13.95;;
14203;SDS011;7185;51.854;6.622;2023-01-26T09:22:31;43.45;;;13.05;;
14203;SDS011;7185;51.854;6.622;2023-01-26T09:25:04;37.00;;;14.57;;
14203;SDS011;7185;51.854;6.622;2023-01-26T09:27:36;36.15;;;12.65;;
14203;SDS011;7185;51.854;6.622;2023-01-26T09:30:09;33.42;;;12.50;;
14203;SDS011;7185;51.854;6.622;2023-01-26T09:32:41;34.72;;;12.30;;
14203;SDS011;7185;51.854;6.622;2023-01-26T09:35:12;34.33;;;11.95;;
14203;SDS011;7185;51.854;6.622;2023-01-26T09:37:44;38.72;;;14.50;;
14203;SDS011;7185;51.854;6.622;2023-01-26T09:40:18;39.45;;;12.10;;
14203;SDS011;7185;51.854;6.622;2023-01-26T09:42:58;37.58;;;12.20;;
14203;SDS011;7185;51.854;6.622;2023-01-26T09:45:40;39.45;;;12.52;;
14203;SDS011;7185;51.854;6.622;2023-01-26T09:48:23;40.05;;;13.38;;
14203;SDS011;7185;51.854;6.622;2023-01-26T09:51:02;38.13;;;12.40;;
14203;SDS011;7185;51.854;6.622;2023-01-26T09:53:42;41.20;;;12.35;;
14203;SDS011;7185;51.854;6.622;2023-01-26T09:56:18;41.80;;;13.68;;
14203;SDS011;7185;51.854;6.622;2023-01-26T09:58:53;40.63;;;14.23;;
14203;SDS011;7185;51.854;6.622;2023-01-26T10:01:30;44.05;;;14.30;;
14203;SDS011;7185;51.854;6.622;2023-01-26T10:04:10;42.30;;;13.80;;
14203;SDS011;7185;51.854;6.622;2023-01-26T10:06:52;41.28;;;14.32;;
14203;SDS011;7185;51.854;6.622;2023-01-26T10:09:27;38.80;;;12.25;;
14203;SDS011;7185;51.854;6.622;2023-01-26T10:14:38;43.38;;;14.05;;
14203;SDS011;7185;51.854;6.622;2023-01-26T10:17:16;45.20;;;12.55;;
14203;SDS011;7185;51.854;6.622;2023-01-26T10:19:53;40.33;;;13.05;;
14203;SDS011;7185;51.854;6.622;2023-01-26T10:22:30;43.13;;;15.07;;
14203;SDS011;7185;51.854;6.622;2023-01-26T10:25:12;44.25;;;13.77;;
14203;SDS011;7185;51.854;6.622;2023-01-26T10:27:47;39.88;;;14.60;;
14203;SDS011;7185;51.854;6.622;2023-01-26T10:30:19;43.25;;;14.30;;
14203;SDS011;7185;51.854;6.622;2023-01-26T10:32:51;41.92;;;13.75;;
14203;SDS011;7185;51.854;6.622;2023-01-26T10:35:23;43.10;;;13.90;;
14203;SDS011;7185;51.854;6.622;2023-01-26T10:37:55;39.38;;;12.23;;
14203;SDS011;7185;51.854;6.622;2023-01-26T10:40:27;36.28;;;13.20;;
14203;SDS011;7185;51.854;6.622;2023-01-26T10:43:00;41.13;;;14.13;;
14203;SDS011;7185;51.854;6.622;2023-01-26T10:45:32;44.80;;;14.20;;
14203;SDS011;7185;51.854;6.622;2023-01-26T10:48:08;41.85;;;13.43;;
14203;SDS011;7185;51.854;6.622;2023-01-26T10:50:47;44.03;;;13.48;;
14203;SDS011;7185;51.854;6.622;2023-01-26T10:53:21;46.75;;;13.23;;
14203;SDS011;7185;51.854;6.622;2023-01-26T10:55:57;40.05;;;12.80;;
14203;SDS011;7185;51.854;6.622;2023-01-26T11:01:21;38.40;;;13.70;;
14203;SDS011;7185;51.854;6.622;2023-01-26T11:04:03;43.80;;;13.45;;
14203;SDS011;7185;51.854;6.622;2023-01-26T11:06:37;45.70;;;13.23;;
14203;SDS011;7185;51.854;6.622;2023-01-26T11:09:10;45.97;;;14.15;;
14203;SDS011;7185;51.854;6.622;2023-01-26T11:11:55;45.65;;;12.57;;
14203;SDS011;7185;51.854;6.622;2023-01-26T11:14:29;47.63;;;14.88;;
14203;SDS011;7185;51.854;6.622;2023-01-26T11:17:13;44.03;;;13.90;;
14203;SDS011;7185;51.854;6.622;2023-01-26T11:19:58;46.17;;;14.93;;
14203;SDS011;7185;51.854;6.622;2023-01-26T11:22:39;45.72;;;14.50;;
14203;SDS011;7185;51.854;6.622;2023-01-26T11:25:20;51.67;;;13.90;;
14203;SDS011;7185;51.854;6.622;2023-01-26T11:28:03;50.50;;;15.77;;
14203;SDS011;7185;51.854;6.622;2023-01-26T11:30:51;46.65;;;13.98;;
14203;SDS011;7185;51.854;6.622;2023-01-26T11:33:32;48.90;;;14.52;;
14203;SDS011;7185;51.854;6.622;2023-01-26T11:36:15;54.55;;;15.15;;
14203;SDS011;7185;51.854;6.622;2023-01-26T11:38:58;47.72;;;15.10;;
14203;SDS011;7185;51.854;6.622;2023-01-26T11:41:43;48.90;;;14.60;;
14203;SDS011;7185;51.854;6.622;2023-01-26T11:44:29;48.08;;;14.73;;
14203;SDS011;7185;51.854;6.622;2023-01-26T11:47:18;48.30;;;14.50;;
14203;SDS011;7185;51.854;6.622;2023-01-26T11:50:25;46.75;;;14.32;;
14203;SDS011;7185;51.854;6.622;2023-01-26T11:56:11;47.78;;;15.02;;
14203;SDS011;7185;51.854;6.622;2023-01-26T11:58:54;50.67;;;15.32;;
14203;SDS011;7185;51.854;6.622;2023-01-26T12:01:32;54.15;;;15.38;;
14203;SDS011;7185;51.854;6.622;2023-01-26T12:04:10;50.97;;;15.07;;
14203;SDS011;7185;51.854;6.622;2023-01-26T12:06:49;52.33;;;15.50;;
14203;SDS011;7185;51.854;6.622;2023-01-26T12:09:25;52.80;;;14.70;;
14203;SDS011;7185;51.854;6.622;2023-01-26T12:12:03;51.63;;;15.25;;
14203;SDS011;7185;51.854;6.622;2023-01-26T12:14:42;54.35;;;17.17;;
14203;SDS011;7185;51.854;6.622;2023-01-26T12:17:24;47.40;;;14.32;;
14203;SDS011;7185;51.854;6.622;2023-01-26T12:20:05;51.08;;;15.32;;
14203;SDS011;7185;51.854;6.622;2023-01-26T12:25:27;51.47;;;16.17;;
14203;SDS011;7185;51.854;6.622;2023-01-26T12:28:09;54.25;;;14.48;;
14203;SDS011;7185;51.854;6.622;2023-01-26T12:30:49;47.20;;;14.43;;
14203;SDS011;7185;51.854;6.622;2023-01-26T12:33:26;46.30;;;13.93;;
14203;SDS011;7185;51.854;6.622;2023-01-26T12:36:11;55.83;;;14.80;;
14203;SDS011;7185;51.854;6.622;2023-01-26T12:38:57;45.03;;;13.27;;
14203;SDS011;7185;51.854;6.622;2023-01-26T12:41:43;46.88;;;12.63;;
14203;SDS011;7185;51.854;6.622;2023-01-26T12:44:32;43.50;;;11.93;;
14203;SDS011;7185;51.854;6.622;2023-01-26T12:47:15;37.10;;;11.73;;
14203;SDS011;7185;51.854;6.622;2023-01-26T12:49:55;37.72;;;11.75;;
14203;SDS011;7185;51.854;6.622;2023-01-26T12:52:34;49.22;;;12.07;;
14203;SDS011;7185;51.854;6.622;2023-01-26T12:55:15;43.65;;;11.85;;
14203;SDS011;7185;51.854;6.622;2023-01-26T12:57:51;39.55;;;12.70;;
14203;SDS011;7185;51.854;6.622;2023-01-26T13:00:26;48.90;;;12.80;;
14203;SDS011;7185;51.854;6.622;2023-01-26T13:03:01;43.88;;;12.52;;
14203;SDS011;7185;51.854;6.622;2023-01-26T13:05:39;41.97;;;11.55;;
14203;SDS011;7185;51.854;6.622;2023-01-26T13:08:39;34.53;;;10.00;;
14203;SDS011;7185;51.854;6.622;2023-01-26T13:11:40;39.78;;;10.35;;
14203;SDS011;7185;51.854;6.622;2023-01-26T13:14:23;35.60;;;11.45;;
14203;SDS011;7185;51.854;6.622;2023-01-26T13:20:22;36.27;;;12.10;;
14203;SDS011;7185;51.854;6.622;2023-01-26T13:26:15;26.83;;;7.55;;
14203;SDS011;7185;51.854;6.622;2023-01-26T13:28:50;26.60;;;8.00;;
14203;SDS011;7185;51.854;6.622;2023-01-26T13:31:30;33.63;;;8.82;;
14203;SDS011;7185;51.854;6.622;2023-01-26T13:34:05;28.60;;;10.50;;
14203;SDS011;7185;51.854;6.622;2023-01-26T13:36:39;27.15;;;8.98;;
14203;SDS011;7185;51.854;6.622;2023-01-26T13:39:17;23.63;;;7.05;;
14203;SDS011;7185;51.854;6.622;2023-01-26T13:41:58;28.13;;;7.43;;
14203;SDS011;7185;51.854;6.622;2023-01-26T13:44:32;20.58;;;6.97;;
14203;SDS011;7185;51.854;6.622;2023-01-26T13:47:09;36.15;;;12.45;;
14203;SDS011;7185;51.854;6.622;2023-01-26T13:49:45;40.83;;;11.85;;
14203;SDS011;7185;51.854;6.622;2023-01-26T13:52:18;24.50;;;7.03;;
14203;SDS011;7185;51.854;6.622;2023-01-26T13:54:53;33.33;;;8.63;;
14203;SDS011;7185;51.854;6.622;2023-01-26T13:57:27;27.80;;;7.90;;
14203;SDS011;7185;51.854;6.622;2023-01-26T14:00:02;29.23;;;8.00;;
14203;SDS011;7185;51.854;6.622;2023-01-26T14:02:34;29.42;;;8.35;;
14203;SDS011;7185;51.854;6.622;2023-01-26T14:05:19;33.45;;;7.95;;
14203;SDS011;7185;51.854;6.622;2023-01-26T14:07:52;27.50;;;7.25;;
14203;SDS011;7185;51.854;6.622;2023-01-26T14:10:24;36.58;;;10.18;;
14203;SDS011;7185;51.854;6.622;2023-01-26T14:12:56;27.25;;;7.25;;
14203;SDS011;7185;51.854;6.622;2023-01-26T14:15:31;30.65;;;8.15;;
14203;SDS011;7185;51.854;6.622;2023-01-26T14:18:04;25.95;;;6.88;;
14203;SDS011;7185;51.854;6.622;2023-01-26T14:20:36;23.48;;;6.72;;
14203;SDS011;7185;51.854;6.622;2023-01-26T14:23:10;25.55;;;6.50;;
14203;SDS011;7185;51.854;6.622;2023-01-26T14:25:44;18.88;;;6.30;;
14203;SDS011;7185;51.854;6.622;2023-01-26T14:28:19;21.08;;;6.47;;
14203;SDS011;7185;51.854;6.622;2023-01-26T14:30:55;24.98;;;7.75;;
14203;SDS011;7185;51.854;6.622;2023-01-26T14:33:30;21.17;;;7.30;;
14203;SDS011;7185;51.854;6.622;2023-01-26T14:36:02;21.05;;;6.53;;
14203;SDS011;7185;51.854;6.622;2023-01-26T14:38:38;21.80;;;6.78;;
14203;SDS011;7185;51.854;6.622;2023-01-26T14:43:47;18.90;;;6.35;;
14203;SDS011;7185;51.854;6.622;2023-01-26T14:46:22;18.63;;;6.90;;
14203;SDS011;7185;51.854;6.622;2023-01-26T14:48:58;19.88;;;8.60;;
14203;SDS011;7185;51.854;6.622;2023-01-26T14:51:35;23.95;;;7.38;;
14203;SDS011;7185;51.854;6.622;2023-01-26T14:54:09;27.50;;;7.50;;
14203;SDS011;7185;51.854;6.622;2023-01-26T14:56:48;17.38;;;7.20;;
14203;SDS011;7185;51.854;6.622;2023-01-26T14:59:20;21.17;;;8.30;;
14203;SDS011;7185;51.854;6.622;2023-01-26T15:04:47;29.15;;;7.32;;
14203;SDS011;7185;51.854;6.622;2023-01-26T15:07:30;26.30;;;7.45;;
14203;SDS011;7185;51.854;6.622;2023-01-26T15:13:05;23.80;;;7.18;;
14203;SDS011;7185;51.854;6.622;2023-01-26T15:16:00;19.42;;;5.82;;
14203;SDS011;7185;51.854;6.622;2023-01-26T15:18:35;25.50;;;8.00;;
14203;SDS011;7185;51.854;6.622;2023-01-26T15:21:11;27.52;;;7.22;;
14203;SDS011;7185;51.854;6.622;2023-01-26T15:23:48;23.85;;;8.05;;
14203;SDS011;7185;51.854;6.622;2023-01-26T15:26:23;21.75;;;6.47;;
14203;SDS011;7185;51.854;6.622;2023-01-26T15:28:59;24.08;;;7.25;;
14203;SDS011;7185;51.854;6.622;2023-01-26T15:31:33;20.70;;;6.88;;
14203;SDS011;7185;51.854;6.622;2023-01-26T15:39:58;22.13;;;7.93;;
14203;SDS011;7185;51.854;6.622;2023-01-26T15:42:30;24.17;;;7.50;;
14203;SDS011;7185;51.854;6.622;2023-01-26T15:45:05;20.83;;;7.20;;
14203;SDS011;7185;51.854;6.622;2023-01-26T15:47:59;21.20;;;8.30;;
14203;SDS011;7185;51.854;6.622;2023-01-26T15:53:05;25.75;;;8.32;;
14203;SDS011;7185;51.854;6.622;2023-01-26T15:55:40;24.63;;;7.75;;
14203;SDS011;7185;51.854;6.622;2023-01-26T15:58:13;20.50;;;6.00;;
14203;SDS011;7185;51.854;6.622;2023-01-26T16:00:44;24.83;;;6.00;;